sensor_id;sensor_type;location;lat;lon;timestamp;P1;durP1;ratioP1;P2;durP2;ratioP2
59516;SDS011;45342;42.662;27.718;2023-02-12T00:03:03;12.48;;;6.75;;
59516;SDS011;45342;42.662;27.718;2023-02-12T00:05:29;11.18;;;6.80;;
59516;SDS011;45342;42.662;27.718;2023-02-12T00:07:55;11.85;;;7.38;;
59516;SDS011;45342;42.662;27.718;2023-02-12T00:10:21;12.20;;;7.38;;
59516;SDS011;45342;42.662;27.718;2023-02-12T00:12:49;12.98;;;7.63;;
59516;SDS011;45342;42.662;27.718;2023-02-12T00:15:15;12.15;;;7.10;;
59516;SDS011;45342;42.662;27.718;2023-02-12T00:17:40;11.13;;;6.82;;
59516;SDS011;45342;42.662;27.718;2023-02-12T00:20:06;11.50;;;7.03;;
59516;SDS011;45342;42.662;27.718;2023-02-12T00:22:33;12.07;;;7.30;;
59516;SDS011;45342;42.662;27.718;2023-02-12T00:24:58;13.10;;;7.30;;
59516;SDS011;45342;42.662;27.718;2023-02-12T00:27:24;12.07;;;7.03;;
59516;SDS011;45342;42.662;27.718;2023-02-12T00:29:50;12.95;;;7.50;;
59516;SDS011;45342;42.662;27.718;2023-02-12T00:32:15;11.48;;;6.97;;
59516;SDS011;45342;42.662;27.718;2023-02-12T00:34:45;11.57;;;6.70;;
59516;SDS011;45342;42.662;27.718;2023-02-12T00:37:12;14.27;;;7.68;;
59516;SDS011;45342;42.662;27.718;2023-02-12T00:39:39;15.32;;;7.53;;
59516;SDS011;45342;42.662;27.718;2023-02-12T00:42:05;12.75;;;7.60;;
59516;SDS011;45342;42.662;27.718;2023-02-12T00:44:30;12.60;;;7.22;;
59516;SDS011;45342;42.662;27.718;2023-02-12T00:46:56;13.27;;;8.05;;
59516;SDS011;45342;42.662;27.718;2023-02-12T00:49:23;11.27;;;6.78;;
59516;SDS011;45342;42.662;27.718;2023-02-12T00:51:50;13.52;;;7.05;;
59516;SDS011;45342;42.662;27.718;2023-02-12T00:54:16;13.23;;;7.32;;
59516;SDS011;45342;42.662;27.718;2023-02-12T00:56:43;12.80;;;7.30;;
59516;SDS011;45342;42.662;27.718;2023-02-12T00:59:10;11.15;;;7.30;;
59516;SDS011;45342;42.662;27.718;2023-02-12T01:01:35;14.88;;;8.50;;
59516;SDS011;45342;42.662;27.718;2023-02-12T01:04:01;13.15;;;7.28;;
59516;SDS011;45342;42.662;27.718;2023-02-12T01:06:27;12.25;;;7.25;;
59516;SDS011;45342;42.662;27.718;2023-02-12T01:08:52;13.07;;;7.30;;
59516;SDS011;45342;42.662;27.718;2023-02-12T01:11:18;12.60;;;7.35;;
59516;SDS011;45342;42.662;27.718;2023-02-12T01:13:44;13.95;;;7.55;;
59516;SDS011;45342;42.662;27.718;2023-02-12T01:16:14;11.82;;;7.03;;
59516;SDS011;45342;42.662;27.718;2023-02-12T01:18:41;11.95;;;6.80;;
59516;SDS011;45342;42.662;27.718;2023-02-12T01:21:08;11.23;;;7.05;;
59516;SDS011;45342;42.662;27.718;2023-02-12T01:23:44;13.70;;;7.70;;
59516;SDS011;45342;42.662;27.718;2023-02-12T01:26:10;13.15;;;7.72;;
59516;SDS011;45342;42.662;27.718;2023-02-12T01:28:41;12.55;;;7.18;;
59516;SDS011;45342;42.662;27.718;2023-02-12T01:31:08;13.80;;;7.22;;
59516;SDS011;45342;42.662;27.718;2023-02-12T01:33:36;12.10;;;7.10;;
59516;SDS011;45342;42.662;27.718;2023-02-12T01:36:02;15.30;;;8.10;;
59516;SDS011;45342;42.662;27.718;2023-02-12T01:38:28;13.00;;;7.18;;
59516;SDS011;45342;42.662;27.718;2023-02-12T01:41:00;11.80;;;6.93;;
59516;SDS011;45342;42.662;27.718;2023-02-12T01:43:32;11.50;;;6.53;;
59516;SDS011;45342;42.662;27.718;2023-02-12T01:45:58;13.15;;;6.90;;
59516;SDS011;45342;42.662;27.718;2023-02-12T01:50:54;12.63;;;6.75;;
59516;SDS011;45342;42.662;27.718;2023-02-12T01:53:22;11.85;;;6.90;;
59516;SDS011;45342;42.662;27.718;2023-02-12T01:55:51;13.23;;;7.47;;
59516;SDS011;45342;42.662;27.718;2023-02-12T01:58:18;10.43;;;6.50;;
59516;SDS011;45342;42.662;27.718;2023-02-12T02:00:45;11.18;;;6.63;;
59516;SDS011;45342;42.662;27.718;2023-02-12T02:03:12;12.10;;;7.18;;
59516;SDS011;45342;42.662;27.718;2023-02-12T02:05:41;11.30;;;6.78;;
59516;SDS011;45342;42.662;27.718;2023-02-12T02:08:11;11.20;;;7.03;;
59516;SDS011;45342;42.662;27.718;2023-02-12T02:10:38;11.43;;;7.07;;
59516;SDS011;45342;42.662;27.718;2023-02-12T02:13:04;10.88;;;6.82;;
59516;SDS011;45342;42.662;27.718;2023-02-12T02:15:50;11.45;;;6.68;;
59516;SDS011;45342;42.662;27.718;2023-02-12T02:18:22;11.50;;;6.93;;
59516;SDS011;45342;42.662;27.718;2023-02-12T02:21:09;11.25;;;6.80;;
59516;SDS011;45342;42.662;27.718;2023-02-12T02:24:04;13.27;;;6.97;;
59516;SDS011;45342;42.662;27.718;2023-02-12T02:27:02;11.98;;;6.78;;
59516;SDS011;45342;42.662;27.718;2023-02-12T02:35:25;11.18;;;6.65;;
59516;SDS011;45342;42.662;27.718;2023-02-12T02:40:56;11.77;;;7.45;;
59516;SDS011;45342;42.662;27.718;2023-02-12T02:43:28;13.35;;;7.07;;
59516;SDS011;45342;42.662;27.718;2023-02-12T02:46:01;13.43;;;7.03;;
59516;SDS011;45342;42.662;27.718;2023-02-12T02:48:36;12.13;;;7.25;;
59516;SDS011;45342;42.662;27.718;2023-02-12T02:51:06;12.25;;;7.05;;
59516;SDS011;45342;42.662;27.718;2023-02-12T02:53:41;13.40;;;6.93;;
59516;SDS011;45342;42.662;27.718;2023-02-12T02:56:11;11.25;;;6.55;;
59516;SDS011;45342;42.662;27.718;2023-02-12T02:58:42;11.50;;;6.60;;
59516;SDS011;45342;42.662;27.718;2023-02-12T03:01:44;12.02;;;6.50;;
59516;SDS011;45342;42.662;27.718;2023-02-12T03:04:27;10.82;;;6.45;;
59516;SDS011;45342;42.662;27.718;2023-02-12T03:07:08;11.73;;;6.85;;
59516;SDS011;45342;42.662;27.718;2023-02-12T03:09:39;12.32;;;6.90;;
59516;SDS011;45342;42.662;27.718;2023-02-12T03:12:10;11.88;;;6.80;;
59516;SDS011;45342;42.662;27.718;2023-02-12T03:14:39;11.15;;;6.72;;
59516;SDS011;45342;42.662;27.718;2023-02-12T03:17:17;13.32;;;7.13;;
59516;SDS011;45342;42.662;27.718;2023-02-12T03:19:54;10.32;;;6.60;;
59516;SDS011;45342;42.662;27.718;2023-02-12T03:22:30;10.55;;;6.45;;
59516;SDS011;45342;42.662;27.718;2023-02-12T03:25:06;11.18;;;6.53;;
59516;SDS011;45342;42.662;27.718;2023-02-12T03:27:42;11.20;;;6.40;;
59516;SDS011;45342;42.662;27.718;2023-02-12T03:30:11;10.23;;;6.55;;
59516;SDS011;45342;42.662;27.718;2023-02-12T03:35:41;11.82;;;6.75;;
59516;SDS011;45342;42.662;27.718;2023-02-12T03:38:33;11.00;;;6.63;;
59516;SDS011;45342;42.662;27.718;2023-02-12T03:41:07;11.18;;;6.95;;
59516;SDS011;45342;42.662;27.718;2023-02-12T03:43:53;13.30;;;7.00;;
59516;SDS011;45342;42.662;27.718;2023-02-12T03:52:03;13.00;;;6.82;;
59516;SDS011;45342;42.662;27.718;2023-02-12T03:54:29;12.68;;;7.10;;
59516;SDS011;45342;42.662;27.718;2023-02-12T03:57:00;11.25;;;6.85;;
59516;SDS011;45342;42.662;27.718;2023-02-12T03:59:27;13.00;;;6.93;;
59516;SDS011;45342;42.662;27.718;2023-02-12T04:01:56;10.68;;;6.65;;
59516;SDS011;45342;42.662;27.718;2023-02-12T04:04:23;13.27;;;6.75;;
59516;SDS011;45342;42.662;27.718;2023-02-12T04:06:50;11.77;;;7.15;;
59516;SDS011;45342;42.662;27.718;2023-02-12T04:09:17;10.85;;;6.50;;
59516;SDS011;45342;42.662;27.718;2023-02-12T04:14:35;11.00;;;6.63;;
59516;SDS011;45342;42.662;27.718;2023-02-12T04:28:56;10.40;;;6.07;;
59516;SDS011;45342;42.662;27.718;2023-02-12T04:31:32;10.75;;;6.60;;
59516;SDS011;45342;42.662;27.718;2023-02-12T04:36:44;10.38;;;6.80;;
59516;SDS011;45342;42.662;27.718;2023-02-12T04:39:15;11.60;;;7.00;;
59516;SDS011;45342;42.662;27.718;2023-02-12T04:41:43;12.07;;;6.95;;
59516;SDS011;45342;42.662;27.718;2023-02-12T04:44:52;13.48;;;6.68;;
59516;SDS011;45342;42.662;27.718;2023-02-12T04:46:59;11.05;;;6.13;;
59516;SDS011;45342;42.662;27.718;2023-02-12T04:49:26;10.55;;;6.38;;
59516;SDS011;45342;42.662;27.718;2023-02-12T04:51:52;12.13;;;6.85;;
59516;SDS011;45342;42.662;27.718;2023-02-12T04:54:18;11.45;;;6.68;;
59516;SDS011;45342;42.662;27.718;2023-02-12T04:56:45;12.60;;;6.70;;
59516;SDS011;45342;42.662;27.718;2023-02-12T04:59:12;10.82;;;6.05;;
59516;SDS011;45342;42.662;27.718;2023-02-12T05:01:38;11.60;;;6.70;;
59516;SDS011;45342;42.662;27.718;2023-02-12T05:04:04;11.13;;;6.38;;
59516;SDS011;45342;42.662;27.718;2023-02-12T05:06:31;10.23;;;6.00;;
59516;SDS011;45342;42.662;27.718;2023-02-12T05:08:59;10.00;;;5.97;;
59516;SDS011;45342;42.662;27.718;2023-02-12T05:11:26;11.40;;;6.03;;
59516;SDS011;45342;42.662;27.718;2023-02-12T05:13:52;11.48;;;6.35;;
59516;SDS011;45342;42.662;27.718;2023-02-12T05:16:19;11.95;;;6.35;;
59516;SDS011;45342;42.662;27.718;2023-02-12T05:18:45;11.82;;;6.82;;
59516;SDS011;45342;42.662;27.718;2023-02-12T05:21:11;11.68;;;6.50;;
59516;SDS011;45342;42.662;27.718;2023-02-12T05:23:39;10.15;;;6.20;;
59516;SDS011;45342;42.662;27.718;2023-02-12T05:26:06;9.90;;;6.40;;
59516;SDS011;45342;42.662;27.718;2023-02-12T05:28:37;9.95;;;6.55;;
59516;SDS011;45342;42.662;27.718;2023-02-12T05:31:04;11.25;;;7.03;;
59516;SDS011;45342;42.662;27.718;2023-02-12T05:33:30;11.38;;;6.50;;
59516;SDS011;45342;42.662;27.718;2023-02-12T05:36:06;12.07;;;6.47;;
59516;SDS011;45342;42.662;27.718;2023-02-12T05:38:34;11.45;;;6.57;;
59516;SDS011;45342;42.662;27.718;2023-02-12T05:41:04;11.50;;;6.47;;
59516;SDS011;45342;42.662;27.718;2023-02-12T05:43:34;11.90;;;7.03;;
59516;SDS011;45342;42.662;27.718;2023-02-12T05:46:01;12.38;;;6.78;;
59516;SDS011;45342;42.662;27.718;2023-02-12T05:48:28;10.48;;;6.32;;
59516;SDS011;45342;42.662;27.718;2023-02-12T05:50:53;12.10;;;6.55;;
59516;SDS011;45342;42.662;27.718;2023-02-12T05:53:20;12.15;;;6.53;;
59516;SDS011;45342;42.662;27.718;2023-02-12T05:55:47;12.52;;;7.20;;
59516;SDS011;45342;42.662;27.718;2023-02-12T05:58:13;15.07;;;7.88;;
59516;SDS011;45342;42.662;27.718;2023-02-12T06:00:39;13.02;;;7.10;;
59516;SDS011;45342;42.662;27.718;2023-02-12T06:03:05;12.52;;;7.05;;
59516;SDS011;45342;42.662;27.718;2023-02-12T06:05:31;12.02;;;7.18;;
59516;SDS011;45342;42.662;27.718;2023-02-12T06:07:57;10.93;;;6.70;;
59516;SDS011;45342;42.662;27.718;2023-02-12T06:10:22;11.20;;;6.90;;
59516;SDS011;45342;42.662;27.718;2023-02-12T06:12:55;12.23;;;7.00;;
59516;SDS011;45342;42.662;27.718;2023-02-12T06:15:21;12.85;;;7.22;;
59516;SDS011;45342;42.662;27.718;2023-02-12T06:17:47;13.93;;;7.80;;
59516;SDS011;45342;42.662;27.718;2023-02-12T06:20:12;14.73;;;7.40;;
59516;SDS011;45342;42.662;27.718;2023-02-12T06:22:38;12.15;;;7.00;;
59516;SDS011;45342;42.662;27.718;2023-02-12T06:25:04;12.38;;;6.97;;
59516;SDS011;45342;42.662;27.718;2023-02-12T06:27:30;14.00;;;7.60;;
59516;SDS011;45342;42.662;27.718;2023-02-12T06:29:55;12.02;;;7.20;;
59516;SDS011;45342;42.662;27.718;2023-02-12T06:32:22;11.95;;;6.72;;
59516;SDS011;45342;42.662;27.718;2023-02-12T06:34:49;11.52;;;6.93;;
59516;SDS011;45342;42.662;27.718;2023-02-12T06:37:28;10.60;;;6.47;;
59516;SDS011;45342;42.662;27.718;2023-02-12T06:39:54;11.75;;;6.70;;
59516;SDS011;45342;42.662;27.718;2023-02-12T06:42:26;10.98;;;6.68;;
59516;SDS011;45342;42.662;27.718;2023-02-12T06:47:18;10.50;;;6.25;;
59516;SDS011;45342;42.662;27.718;2023-02-12T06:49:46;12.10;;;6.40;;
59516;SDS011;45342;42.662;27.718;2023-02-12T06:52:12;13.10;;;7.50;;
59516;SDS011;45342;42.662;27.718;2023-02-12T06:57:15;11.50;;;6.90;;
59516;SDS011;45342;42.662;27.718;2023-02-12T06:59:41;12.65;;;7.18;;
59516;SDS011;45342;42.662;27.718;2023-02-12T07:02:08;12.27;;;6.90;;
59516;SDS011;45342;42.662;27.718;2023-02-12T07:04:39;12.27;;;7.07;;
59516;SDS011;45342;42.662;27.718;2023-02-12T07:07:06;12.25;;;6.85;;
59516;SDS011;45342;42.662;27.718;2023-02-12T07:09:31;12.13;;;6.78;;
59516;SDS011;45342;42.662;27.718;2023-02-12T07:12:01;13.15;;;6.95;;
59516;SDS011;45342;42.662;27.718;2023-02-12T07:14:31;11.00;;;6.75;;
59516;SDS011;45342;42.662;27.718;2023-02-12T07:16:57;12.73;;;7.05;;
59516;SDS011;45342;42.662;27.718;2023-02-12T07:19:22;13.38;;;7.43;;
59516;SDS011;45342;42.662;27.718;2023-02-12T07:21:48;12.48;;;6.97;;
59516;SDS011;45342;42.662;27.718;2023-02-12T07:24:14;11.35;;;6.50;;
59516;SDS011;45342;42.662;27.718;2023-02-12T07:26:43;12.10;;;6.60;;
59516;SDS011;45342;42.662;27.718;2023-02-12T07:29:09;11.50;;;6.65;;
59516;SDS011;45342;42.662;27.718;2023-02-12T07:31:36;11.75;;;6.85;;
59516;SDS011;45342;42.662;27.718;2023-02-12T07:34:02;11.52;;;6.50;;
59516;SDS011;45342;42.662;27.718;2023-02-12T07:36:34;11.40;;;6.80;;
59516;SDS011;45342;42.662;27.718;2023-02-12T07:39:02;12.75;;;6.95;;
59516;SDS011;45342;42.662;27.718;2023-02-12T07:41:32;12.63;;;7.00;;
59516;SDS011;45342;42.662;27.718;2023-02-12T07:44:00;12.50;;;6.75;;
59516;SDS011;45342;42.662;27.718;2023-02-12T07:46:35;12.48;;;6.75;;
59516;SDS011;45342;42.662;27.718;2023-02-12T07:49:11;11.35;;;6.53;;
59516;SDS011;45342;42.662;27.718;2023-02-12T07:54:16;11.32;;;6.78;;
59516;SDS011;45342;42.662;27.718;2023-02-12T07:56:49;10.55;;;6.40;;
59516;SDS011;45342;42.662;27.718;2023-02-12T07:59:17;13.40;;;7.20;;
59516;SDS011;45342;42.662;27.718;2023-02-12T08:01:47;11.10;;;7.07;;
59516;SDS011;45342;42.662;27.718;2023-02-12T08:04:15;11.02;;;6.97;;
59516;SDS011;45342;42.662;27.718;2023-02-12T08:06:50;11.57;;;7.03;;
59516;SDS011;45342;42.662;27.718;2023-02-12T08:09:23;11.73;;;6.78;;
59516;SDS011;45342;42.662;27.718;2023-02-12T08:11:54;11.30;;;7.03;;
59516;SDS011;45342;42.662;27.718;2023-02-12T08:14:20;10.55;;;6.32;;
59516;SDS011;45342;42.662;27.718;2023-02-12T08:16:47;11.68;;;6.60;;
59516;SDS011;45342;42.662;27.718;2023-02-12T08:19:14;13.45;;;7.28;;
59516;SDS011;45342;42.662;27.718;2023-02-12T08:21:40;14.07;;;7.43;;
59516;SDS011;45342;42.662;27.718;2023-02-12T08:24:05;12.10;;;7.22;;
59516;SDS011;45342;42.662;27.718;2023-02-12T08:26:32;13.20;;;6.82;;
59516;SDS011;45342;42.662;27.718;2023-02-12T08:29:02;10.90;;;6.90;;
59516;SDS011;45342;42.662;27.718;2023-02-12T08:31:36;12.98;;;7.07;;
59516;SDS011;45342;42.662;27.718;2023-02-12T08:34:05;11.77;;;6.88;;
59516;SDS011;45342;42.662;27.718;2023-02-12T08:36:36;12.40;;;7.25;;
59516;SDS011;45342;42.662;27.718;2023-02-12T08:39:04;12.55;;;7.25;;
59516;SDS011;45342;42.662;27.718;2023-02-12T08:41:31;13.32;;;7.60;;
59516;SDS011;45342;42.662;27.718;2023-02-12T08:43:58;13.95;;;7.72;;
59516;SDS011;45342;42.662;27.718;2023-02-12T08:46:26;13.15;;;7.90;;
59516;SDS011;45342;42.662;27.718;2023-02-12T08:48:54;11.75;;;7.13;;
59516;SDS011;45342;42.662;27.718;2023-02-12T08:51:25;13.60;;;7.55;;
59516;SDS011;45342;42.662;27.718;2023-02-12T08:53:55;12.18;;;7.60;;
59516;SDS011;45342;42.662;27.718;2023-02-12T08:56:23;13.00;;;7.20;;
59516;SDS011;45342;42.662;27.718;2023-02-12T08:58:49;12.95;;;7.43;;
59516;SDS011;45342;42.662;27.718;2023-02-12T09:01:19;13.65;;;7.80;;
59516;SDS011;45342;42.662;27.718;2023-02-12T09:03:46;14.40;;;7.93;;
59516;SDS011;45342;42.662;27.718;2023-02-12T09:09:16;13.38;;;7.53;;
59516;SDS011;45342;42.662;27.718;2023-02-12T09:11:44;14.23;;;8.10;;
59516;SDS011;45342;42.662;27.718;2023-02-12T09:14:17;15.68;;;7.80;;
59516;SDS011;45342;42.662;27.718;2023-02-12T09:16:48;14.05;;;8.02;;
59516;SDS011;45342;42.662;27.718;2023-02-12T09:25:11;14.95;;;8.05;;
59516;SDS011;45342;42.662;27.718;2023-02-12T09:30:10;12.77;;;7.57;;
59516;SDS011;45342;42.662;27.718;2023-02-12T09:32:38;12.48;;;7.22;;
59516;SDS011;45342;42.662;27.718;2023-02-12T09:37:32;15.75;;;8.50;;
59516;SDS011;45342;42.662;27.718;2023-02-12T09:39:58;12.77;;;7.82;;
59516;SDS011;45342;42.662;27.718;2023-02-12T09:45:17;14.82;;;7.90;;
59516;SDS011;45342;42.662;27.718;2023-02-12T09:47:47;13.18;;;7.35;;
59516;SDS011;45342;42.662;27.718;2023-02-12T09:53:00;14.20;;;8.13;;
59516;SDS011;45342;42.662;27.718;2023-02-12T09:55:44;12.40;;;7.03;;
59516;SDS011;45342;42.662;27.718;2023-02-12T09:58:19;15.30;;;8.45;;
59516;SDS011;45342;42.662;27.718;2023-02-12T10:00:49;13.35;;;7.45;;
59516;SDS011;45342;42.662;27.718;2023-02-12T10:03:16;12.45;;;7.47;;
59516;SDS011;45342;42.662;27.718;2023-02-12T10:05:47;12.82;;;7.95;;
59516;SDS011;45342;42.662;27.718;2023-02-12T10:08:34;13.05;;;6.75;;
59516;SDS011;45342;42.662;27.718;2023-02-12T10:19:55;13.68;;;7.43;;
59516;SDS011;45342;42.662;27.718;2023-02-12T10:27:48;13.55;;;7.63;;
59516;SDS011;45342;42.662;27.718;2023-02-12T10:30:21;14.50;;;7.57;;
59516;SDS011;45342;42.662;27.718;2023-02-12T10:32:58;13.68;;;7.63;;
59516;SDS011;45342;42.662;27.718;2023-02-12T10:35:29;13.52;;;7.22;;
59516;SDS011;45342;42.662;27.718;2023-02-12T10:41:03;15.00;;;7.68;;
59516;SDS011;45342;42.662;27.718;2023-02-12T10:46:30;13.70;;;7.28;;
59516;SDS011;45342;42.662;27.718;2023-02-12T10:48:57;14.20;;;7.47;;
59516;SDS011;45342;42.662;27.718;2023-02-12T10:57:06;15.43;;;8.10;;
59516;SDS011;45342;42.662;27.718;2023-02-12T10:59:33;16.23;;;8.32;;
59516;SDS011;45342;42.662;27.718;2023-02-12T11:02:00;14.85;;;7.95;;
59516;SDS011;45342;42.662;27.718;2023-02-12T11:07:06;12.05;;;6.97;;
59516;SDS011;45342;42.662;27.718;2023-02-12T11:09:41;12.07;;;7.30;;
59516;SDS011;45342;42.662;27.718;2023-02-12T11:20:40;13.95;;;7.70;;
59516;SDS011;45342;42.662;27.718;2023-02-12T11:28:34;13.80;;;7.60;;
59516;SDS011;45342;42.662;27.718;2023-02-12T11:38:54;17.60;;;8.10;;
59516;SDS011;45342;42.662;27.718;2023-02-12T11:41:24;13.63;;;7.15;;
59516;SDS011;45342;42.662;27.718;2023-02-12T11:44:24;14.68;;;8.05;;
59516;SDS011;45342;42.662;27.718;2023-02-12T11:49:35;15.73;;;8.18;;
59516;SDS011;45342;42.662;27.718;2023-02-12T11:52:03;13.48;;;8.02;;
59516;SDS011;45342;42.662;27.718;2023-02-12T11:54:37;16.10;;;8.77;;
59516;SDS011;45342;42.662;27.718;2023-02-12T11:57:05;15.85;;;8.88;;
59516;SDS011;45342;42.662;27.718;2023-02-12T12:05:14;15.23;;;8.70;;
59516;SDS011;45342;42.662;27.718;2023-02-12T12:07:54;15.80;;;8.63;;
59516;SDS011;45342;42.662;27.718;2023-02-12T12:13:00;15.23;;;8.15;;
59516;SDS011;45342;42.662;27.718;2023-02-12T12:15:29;15.57;;;8.40;;
59516;SDS011;45342;42.662;27.718;2023-02-12T12:18:46;14.10;;;7.75;;
59516;SDS011;45342;42.662;27.718;2023-02-12T12:24:02;16.00;;;9.38;;
59516;SDS011;45342;42.662;27.718;2023-02-12T12:26:33;14.32;;;8.30;;
59516;SDS011;45342;42.662;27.718;2023-02-12T12:29:09;15.25;;;9.07;;
59516;SDS011;45342;42.662;27.718;2023-02-12T12:31:41;16.00;;;9.38;;
59516;SDS011;45342;42.662;27.718;2023-02-12T12:39:54;16.30;;;8.30;;
59516;SDS011;45342;42.662;27.718;2023-02-12T12:42:37;13.88;;;8.07;;
59516;SDS011;45342;42.662;27.718;2023-02-12T12:51:27;19.77;;;9.63;;
59516;SDS011;45342;42.662;27.718;2023-02-12T12:57:04;15.77;;;8.55;;
59516;SDS011;45342;42.662;27.718;2023-02-12T12:59:48;16.25;;;9.07;;
59516;SDS011;45342;42.662;27.718;2023-02-12T13:02:47;15.40;;;8.35;;
59516;SDS011;45342;42.662;27.718;2023-02-12T13:11:33;15.55;;;8.50;;
59516;SDS011;45342;42.662;27.718;2023-02-12T13:20:11;14.65;;;8.60;;
59516;SDS011;45342;42.662;27.718;2023-02-12T13:22:53;16.77;;;8.93;;
59516;SDS011;45342;42.662;27.718;2023-02-12T13:25:41;15.35;;;8.45;;
59516;SDS011;45342;42.662;27.718;2023-02-12T13:28:21;19.38;;;9.82;;
59516;SDS011;45342;42.662;27.718;2023-02-12T13:30:51;16.15;;;9.18;;
59516;SDS011;45342;42.662;27.718;2023-02-12T13:36:06;16.40;;;9.80;;
59516;SDS011;45342;42.662;27.718;2023-02-12T13:38:37;18.80;;;10.00;;
59516;SDS011;45342;42.662;27.718;2023-02-12T13:41:08;16.98;;;10.23;;
59516;SDS011;45342;42.662;27.718;2023-02-12T13:51:19;20.95;;;11.43;;
59516;SDS011;45342;42.662;27.718;2023-02-12T13:57:18;22.90;;;11.43;;
59516;SDS011;45342;42.662;27.718;2023-02-12T13:59:45;18.85;;;10.77;;
59516;SDS011;45342;42.662;27.718;2023-02-12T14:07:54;20.35;;;10.77;;
59516;SDS011;45342;42.662;27.718;2023-02-12T14:12:54;20.05;;;11.45;;
59516;SDS011;45342;42.662;27.718;2023-02-12T14:15:28;21.00;;;10.98;;
59516;SDS011;45342;42.662;27.718;2023-02-12T14:23:38;22.88;;;12.38;;
59516;SDS011;45342;42.662;27.718;2023-02-12T14:33:51;24.95;;;13.65;;
59516;SDS011;45342;42.662;27.718;2023-02-12T14:36:40;24.70;;;13.05;;
59516;SDS011;45342;42.662;27.718;2023-02-12T14:41:50;27.05;;;12.93;;
59516;SDS011;45342;42.662;27.718;2023-02-12T14:44:54;25.60;;;13.70;;
59516;SDS011;45342;42.662;27.718;2023-02-12T14:55:24;27.15;;;14.60;;
59516;SDS011;45342;42.662;27.718;2023-02-12T14:57:58;27.05;;;13.80;;
59516;SDS011;45342;42.662;27.718;2023-02-12T15:00:27;26.17;;;13.48;;
59516;SDS011;45342;42.662;27.718;2023-02-12T15:05:54;28.90;;;14.60;;
59516;SDS011;45342;42.662;27.718;2023-02-12T15:14:22;25.38;;;13.85;;
59516;SDS011;45342;42.662;27.718;2023-02-12T15:22:19;28.00;;;14.38;;
59516;SDS011;45342;42.662;27.718;2023-02-12T15:25:20;27.67;;;14.68;;
59516;SDS011;45342;42.662;27.718;2023-02-12T15:27:50;27.25;;;14.00;;
59516;SDS011;45342;42.662;27.718;2023-02-12T15:30:21;27.42;;;14.48;;
59516;SDS011;45342;42.662;27.718;2023-02-12T15:32:53;25.58;;;13.60;;
59516;SDS011;45342;42.662;27.718;2023-02-12T15:37:54;26.33;;;14.30;;
59516;SDS011;45342;42.662;27.718;2023-02-12T15:40:24;28.27;;;14.25;;
59516;SDS011;45342;42.662;27.718;2023-02-12T15:43:01;27.98;;;14.30;;
59516;SDS011;45342;42.662;27.718;2023-02-12T15:45:59;25.40;;;14.10;;
59516;SDS011;45342;42.662;27.718;2023-02-12T15:48:33;28.48;;;14.50;;
59516;SDS011;45342;42.662;27.718;2023-02-12T15:53:42;26.45;;;14.10;;
59516;SDS011;45342;42.662;27.718;2023-02-12T15:56:12;30.70;;;15.77;;
59516;SDS011;45342;42.662;27.718;2023-02-12T16:01:33;26.90;;;14.07;;
59516;SDS011;45342;42.662;27.718;2023-02-12T16:04:00;27.13;;;14.85;;
59516;SDS011;45342;42.662;27.718;2023-02-12T16:06:30;29.10;;;14.73;;
59516;SDS011;45342;42.662;27.718;2023-02-12T16:09:07;27.27;;;14.98;;
59516;SDS011;45342;42.662;27.718;2023-02-12T16:11:51;24.92;;;13.90;;
59516;SDS011;45342;42.662;27.718;2023-02-12T16:14:22;28.58;;;14.18;;
59516;SDS011;45342;42.662;27.718;2023-02-12T16:19:22;25.92;;;13.63;;
59516;SDS011;45342;42.662;27.718;2023-02-12T16:21:57;24.80;;;13.18;;
59516;SDS011;45342;42.662;27.718;2023-02-12T16:27:14;24.23;;;13.52;;
59516;SDS011;45342;42.662;27.718;2023-02-12T16:29:46;26.70;;;13.93;;
59516;SDS011;45342;42.662;27.718;2023-02-12T16:47:50;24.35;;;13.50;;
59516;SDS011;45342;42.662;27.718;2023-02-12T16:50:17;22.02;;;12.15;;
59516;SDS011;45342;42.662;27.718;2023-02-12T16:52:43;26.13;;;13.82;;
59516;SDS011;45342;42.662;27.718;2023-02-12T16:55:11;23.83;;;12.90;;
59516;SDS011;45342;42.662;27.718;2023-02-12T16:57:39;23.73;;;12.93;;
59516;SDS011;45342;42.662;27.718;2023-02-12T17:00:05;24.45;;;12.75;;
59516;SDS011;45342;42.662;27.718;2023-02-12T17:02:32;21.75;;;12.30;;
59516;SDS011;45342;42.662;27.718;2023-02-12T17:05:00;24.13;;;12.77;;
59516;SDS011;45342;42.662;27.718;2023-02-12T17:07:29;22.35;;;12.82;;
59516;SDS011;45342;42.662;27.718;2023-02-12T17:09:55;26.30;;;12.90;;
59516;SDS011;45342;42.662;27.718;2023-02-12T17:12:21;23.83;;;12.55;;
59516;SDS011;45342;42.662;27.718;2023-02-12T17:14:47;23.80;;;12.20;;
59516;SDS011;45342;42.662;27.718;2023-02-12T17:17:13;22.40;;;12.40;;
59516;SDS011;45342;42.662;27.718;2023-02-12T17:19:39;20.70;;;12.02;;
59516;SDS011;45342;42.662;27.718;2023-02-12T17:22:06;23.38;;;12.63;;
59516;SDS011;45342;42.662;27.718;2023-02-12T17:24:33;21.83;;;12.05;;
59516;SDS011;45342;42.662;27.718;2023-02-12T17:26:59;20.10;;;11.55;;
59516;SDS011;45342;42.662;27.718;2023-02-12T17:29:28;22.25;;;12.18;;
59516;SDS011;45342;42.662;27.718;2023-02-12T17:31:54;23.52;;;12.15;;
59516;SDS011;45342;42.662;27.718;2023-02-12T17:34:21;23.17;;;12.20;;
59516;SDS011;45342;42.662;27.718;2023-02-12T17:36:47;20.70;;;11.82;;
59516;SDS011;45342;42.662;27.718;2023-02-12T17:39:13;21.58;;;12.23;;
59516;SDS011;45342;42.662;27.718;2023-02-12T17:41:39;21.73;;;12.25;;
59516;SDS011;45342;42.662;27.718;2023-02-12T17:44:08;20.63;;;11.70;;
59516;SDS011;45342;42.662;27.718;2023-02-12T17:46:34;21.48;;;11.82;;
59516;SDS011;45342;42.662;27.718;2023-02-12T17:48:59;20.38;;;11.75;;
59516;SDS011;45342;42.662;27.718;2023-02-12T17:51:25;21.30;;;11.80;;
59516;SDS011;45342;42.662;27.718;2023-02-12T17:53:51;21.02;;;11.50;;
59516;SDS011;45342;42.662;27.718;2023-02-12T17:56:25;21.10;;;11.02;;
59516;SDS011;45342;42.662;27.718;2023-02-12T17:58:51;17.33;;;10.90;;
59516;SDS011;45342;42.662;27.718;2023-02-12T18:01:21;21.55;;;11.60;;
59516;SDS011;45342;42.662;27.718;2023-02-12T18:03:50;19.25;;;10.95;;
59516;SDS011;45342;42.662;27.718;2023-02-12T18:06:26;20.15;;;11.15;;
59516;SDS011;45342;42.662;27.718;2023-02-12T18:08:57;19.73;;;11.13;;
59516;SDS011;45342;42.662;27.718;2023-02-12T18:11:24;19.02;;;10.90;;
59516;SDS011;45342;42.662;27.718;2023-02-12T18:13:50;20.52;;;10.80;;
59516;SDS011;45342;42.662;27.718;2023-02-12T18:16:17;18.13;;;10.40;;
59516;SDS011;45342;42.662;27.718;2023-02-12T18:18:43;21.67;;;11.98;;
59516;SDS011;45342;42.662;27.718;2023-02-12T18:21:11;21.92;;;11.60;;
59516;SDS011;45342;42.662;27.718;2023-02-12T18:23:38;20.20;;;11.73;;
59516;SDS011;45342;42.662;27.718;2023-02-12T18:26:07;18.92;;;11.18;;
59516;SDS011;45342;42.662;27.718;2023-02-12T18:28:40;22.85;;;12.48;;
59516;SDS011;45342;42.662;27.718;2023-02-12T18:31:08;26.65;;;15.00;;
59516;SDS011;45342;42.662;27.718;2023-02-12T18:33:34;24.33;;;14.15;;
59516;SDS011;45342;42.662;27.718;2023-02-12T18:36:02;25.15;;;13.98;;
59516;SDS011;45342;42.662;27.718;2023-02-12T18:38:29;21.38;;;12.85;;
59516;SDS011;45342;42.662;27.718;2023-02-12T18:40:55;24.70;;;13.95;;
59516;SDS011;45342;42.662;27.718;2023-02-12T18:43:21;21.60;;;12.95;;